Tuesday, January 15, 2019, 7:00 PM EST
Back to Local

K1P1, Plymouth, Plymouth Municipal Airport

Location: Plymouth, NH, United States Lat: 43.779
Local Time: 7:00 PM EST ( 0:00 GMT) Lon: -71.754
Time Zone: US/Eastern Elev: 505 ft

Show me the last for .
Show Coded

Time T Td Feel RH Dir Speed Gust Alt SLP Vis Weather Sky Remarks
2019-01-15 18:35 24 20 - 82 - Calm - 30.06 - 10 OVC033 None
2019-01-15 18:15 26 20 - 77 - Calm - 30.06 - 10 OVC031 None
2019-01-15 17:55 25 19 - 80 - Calm - 30.05 - 10 BKN029 OVC070 None
2019-01-15 17:35 26 19 - 76 - Calm - 30.05 - 10 SCT029 BKN070 None
2019-01-15 17:15 26 19 22 76 280° 3 - 30.04 - 10 CLR None
2019-01-15 16:55 25 19 - 77 - Calm - 30.04 - 10 CLR None
2019-01-15 16:35 26 19 - 73 - Calm - 30.04 - 10 CLR None
2019-01-15 16:15 27 19 20 73 280° 6 - 30.04 - 10 CLR None
2019-01-15 15:55 27 19 18 71 270° 9 - 30.04 - 10 CLR None
2019-01-15 15:35 28 19 19 70 270° 8 - 30.04 - 10 CLR None
2019-01-15 15:15 27 19 19 70 280° 8 - 30.04 - 10 CLR None
2019-01-15 14:55 28 19 18 70 270° 10 - 30.04 - 10 CLR None
2019-01-15 14:35 28 19 19 70 270° 8 - 30.03 - 10 CLR None
2019-01-15 14:15 29 19 20 67 280° 9 - 30.03 - 10 CLR None
2019-01-15 13:55 29 19 17 66 270° 9 17 30.03 - 10 SCT075 None
2019-01-15 13:35 28 19 20 68 280° 9 - 30.03 - 10 SCT075 None
2019-01-15 13:15 28 19 16 67 280° 10 17 30.03 - 10 BKN044 None
2019-01-15 12:55 28 19 19 69 270° 9 - 30.03 - 10 OVC044 6-hr Min Temp (1pm): 21.0°F
6-hr Max Temp (1pm): 27.7°F
2019-01-15 12:35 27 19 19 70 270° 8 - 30.03 - 10 OVC042 None
2019-01-15 12:15 27 19 19 70 290° 7 - 30.04 - 10 BKN040 None
2019-01-15 11:55 27 19 14 70 290° 7 18 30.04 - 10 SCT040 None
2019-01-15 11:35 26 19 18 71 280° 8 - 30.04 - 10 SCT042 None
2019-01-15 11:15 26 18 13 73 280° 10 16 30.06 - 10 BKN042 None
2019-01-15 10:55 25 18 16 74 280° 9 - 30.07 - 10 OVC040 None
2019-01-15 10:35 25 18 16 74 280° 9 - 30.08 - 10 BKN022 BKN029 OVC040 None
2019-01-15 10:15 24 18 15 76 280° 8 - 30.09 - 10 OVC022 None
2019-01-15 09:55 24 17 16 75 280° 7 - 30.08 - 10 BKN024 OVC038 None
2019-01-15 09:35 24 17 13 76 290° 10 - 30.08 - 10 SCT024 OVC038 None
2019-01-15 09:15 23 17 14 76 290° 9 - 30.08 - 10 OVC038 None
2019-01-15 08:55 23 17 14 76 290° 8 - 30.07 - 10 OVC038 None
2019-01-15 08:35 23 17 14 77 300° 7 - 30.06 - 10 OVC038 None
2019-01-15 08:15 22 16 13 78 310° 8 - 30.06 - 10 OVC038 None
2019-01-15 07:55 22 16 - 75 - Calm - 30.06 - 10 SCT030 OVC040 None
2019-01-15 07:35 22 15 14 74 350° 6 - 30.05 - 10 SCT028 BKN040 None
2019-01-15 07:15 21 15 7 75 280° 9 17 30.05 - 10 SCT028 None
2019-01-15 06:55 21 14 12 74 280° 7 - 30.04 - 10 CLR 6-hr Min Temp (7am): 18.5°F
6-hr Max Temp (7am): 21.0°F
2019-01-15 06:35 21 14 10 74 310° 9 - 30.04 - 10 CLR None
2019-01-15 06:15 20 13 9 74 290° 9 - 30.03 - 10 CLR None
2019-01-15 05:55 20 12 5 71 300° 9 16 30.03 - 10 CLR None
2019-01-15 05:35 19 11 4 70 290° 10 17 30.02 - 10 CLR None
2019-01-15 05:15 19 10 4 65 290° 10 17 30.02 - 10 CLR None
2019-01-15 04:55 19 8 9 61 280° 9 - 30.02 - 10 CLR None
2019-01-15 04:35 20 8 5 60 300° 13 18 30.02 - 10 CLR None
2019-01-15 04:15 20 8 5 59 290° 10 18 30.02 - 10 CLR None
2019-01-15 03:55 20 8 4 59 300° 12 21 30.03 - 10 CLR None
2019-01-15 03:35 20 8 11 60 320° 7 - 30.03 - 10 CLR None
2019-01-15 03:15 19 8 9 62 280° 8 - 30.03 - 10 CLR None
2019-01-15 02:55 19 8 8 63 280° 9 - 30.04 - 10 CLR None
2019-01-15 02:35 19 8 8 61 290° 10 - 30.04 - 10 CLR None
2019-01-15 02:15 19 8 8 61 290° 10 - 30.04 - 10 CLR None
2019-01-15 01:55 20 8 5 61 290° 10 17 30.04 - 10 CLR None
2019-01-15 01:35 20 8 5 59 290° 10 18 30.04 - 10 CLR None
2019-01-15 01:15 20 8 5 59 290° 13 20 30.04 - 10 CLR None
2019-01-15 00:55 21 8 10 57 290° 10 - 30.04 - 10 CLR 6-hr Min Temp (1am): 19.4°F
6-hr Max Temp (1am): 22.6°F
2019-01-15 00:35 20 8 8 59 290° 12 - 30.04 - 10 CLR None
2019-01-15 00:15 20 8 10 59 300° 9 - 30.04 - 10 CLR None
2019-01-14 23:55 21 8 9 57 300° 10 - 30.05 - 10 SCT120 None
2019-01-14 23:35 20 9 9 59 320° 10 - 30.06 - 10 SCT120 None
2019-01-14 23:15 20 8 10 58 280° 9 - 30.07 - 10 SCT120 None
2019-01-14 22:55 19 9 - 62 - Calm - 30.07 - 10 CLR 24-hr Min Temp (11pm): -10.8°F
24-hr Max Temp (11pm): 26.2°F
2019-01-14 22:35 20 9 14 61 330° 5 - 30.07 - 10 CLR None
2019-01-14 22:15 21 9 10 59 310° 9 - 30.07 - 10 CLR None
2019-01-14 21:55 21 9 12 60 320° 7 - 30.07 - 10 CLR None
2019-01-14 21:35 21 10 15 59 300° 5 - 30.07 - 10 CLR None
2019-01-14 21:15 22 10 14 60 310° 6 - 30.07 - 10 CLR None
2019-01-14 20:55 22 10 11 60 290° 10 - 30.07 - 10 CLR None
2019-01-14 20:35 22 10 11 61 300° 10 - 30.08 - 10 CLR None
2019-01-14 20:15 22 10 8 59 290° 10 17 30.08 - 10 CLR None
2019-01-14 19:55 22 9 12 56 290° 10 - 30.08 - 10 CLR None
2019-01-14 19:35 22 10 17 58 310° 3 - 30.09 - 10 CLR None
2019-01-14 19:15 22 9 12 55 290° 9 - 30.09 - 10 CLR None

Support USWX by starting your Amazon purchase here.